<?xml version="1.0" encoding="UTF-8" standalone="no" ?>
<gpx xmlns="http://www.topografix.com/GPX/1/1" xmlns:xsi="http://www.w3.org/2001/XMLSchema-instance" xsi:schemaLocation="http://www.topografix.com/GPX/1/1 http://www.topografix.com/GPX/1/1/gpx.xsd" version="1.1" creator="VisuGPX - https://www.visugpx.com">
  <metadata>
    <name>Suc de Sara</name>
    <desc><![CDATA[Suc de Sara en aller-retour depuis Montouse]]></desc>
  </metadata>
  <trk>
    <name><![CDATA[ACTIVE LOG112308]]></name>
    <trkseg>
      <trkpt lat="44.86605" lon="4.19476">
        <ele>1397.652</ele>
        <time>2011-04-11T11:23:06Z</time>
      </trkpt>
      <trkpt lat="44.86608" lon="4.19481">
        <ele>1398.23</ele>
        <time>2011-04-11T11:23:20Z</time>
      </trkpt>
      <trkpt lat="44.86636" lon="4.195">
        <ele>1397.493</ele>
        <time>2011-04-11T11:23:45Z</time>
      </trkpt>
      <trkpt lat="44.86643" lon="4.19507">
        <ele>1397.603</ele>
        <time>2011-04-11T11:23:53Z</time>
      </trkpt>
      <trkpt lat="44.86657" lon="4.19531">
        <ele>1395.905</ele>
        <time>2011-04-11T11:24:12Z</time>
      </trkpt>
      <trkpt lat="44.86671" lon="4.19557">
        <ele>1394.757</ele>
        <time>2011-04-11T11:24:32Z</time>
      </trkpt>
      <trkpt lat="44.86689" lon="4.19557">
        <ele>1393.249</ele>
        <time>2011-04-11T11:24:51Z</time>
      </trkpt>
      <trkpt lat="44.86691" lon="4.19557">
        <ele>1393.507</ele>
        <time>2011-04-11T11:24:53Z</time>
      </trkpt>
      <trkpt lat="44.86713" lon="4.19536">
        <ele>1394.07</ele>
        <time>2011-04-11T11:25:16Z</time>
      </trkpt>
      <trkpt lat="44.86716" lon="4.19533">
        <ele>1391.862</ele>
        <time>2011-04-11T11:25:31Z</time>
      </trkpt>
      <trkpt lat="44.86722" lon="4.19531">
        <ele>1391.861</ele>
        <time>2011-04-11T11:25:46Z</time>
      </trkpt>
      <trkpt lat="44.86729" lon="4.19532">
        <ele>1391.537</ele>
        <time>2011-04-11T11:26:02Z</time>
      </trkpt>
      <trkpt lat="44.86731" lon="4.19535">
        <ele>1391.406</ele>
        <time>2011-04-11T11:26:05Z</time>
      </trkpt>
      <trkpt lat="44.86734" lon="4.19541">
        <ele>1391.206</ele>
        <time>2011-04-11T11:26:10Z</time>
      </trkpt>
      <trkpt lat="44.86738" lon="4.19552">
        <ele>1390.734</ele>
        <time>2011-04-11T11:26:18Z</time>
      </trkpt>
      <trkpt lat="44.86742" lon="4.19556">
        <ele>1390.61</ele>
        <time>2011-04-11T11:26:23Z</time>
      </trkpt>
      <trkpt lat="44.86744" lon="4.19557">
        <ele>1390.34</ele>
        <time>2011-04-11T11:26:26Z</time>
      </trkpt>
      <trkpt lat="44.86745" lon="4.19564">
        <ele>1389.87</ele>
        <time>2011-04-11T11:26:30Z</time>
      </trkpt>
      <trkpt lat="44.86755" lon="4.19593">
        <ele>1389.161</ele>
        <time>2011-04-11T11:26:51Z</time>
      </trkpt>
      <trkpt lat="44.86763" lon="4.19617">
        <ele>1388.206</ele>
        <time>2011-04-11T11:27:07Z</time>
      </trkpt>
      <trkpt lat="44.86765" lon="4.19624">
        <ele>1387.572</ele>
        <time>2011-04-11T11:27:12Z</time>
      </trkpt>
      <trkpt lat="44.86771" lon="4.19652">
        <ele>1386.083</ele>
        <time>2011-04-11T11:27:30Z</time>
      </trkpt>
      <trkpt lat="44.86773" lon="4.19686">
        <ele>1384.781</ele>
        <time>2011-04-11T11:27:49Z</time>
      </trkpt>
      <trkpt lat="44.86772" lon="4.19729">
        <ele>1383.305</ele>
        <time>2011-04-11T11:28:14Z</time>
      </trkpt>
      <trkpt lat="44.86766" lon="4.19752">
        <ele>1382.073</ele>
        <time>2011-04-11T11:28:29Z</time>
      </trkpt>
      <trkpt lat="44.8675" lon="4.19771">
        <ele>1380.921</ele>
        <time>2011-04-11T11:28:45Z</time>
      </trkpt>
      <trkpt lat="44.86722" lon="4.19777">
        <ele>1379.4</ele>
        <time>2011-04-11T11:29:08Z</time>
      </trkpt>
      <trkpt lat="44.86703" lon="4.19783">
        <ele>1378.815</ele>
        <time>2011-04-11T11:29:29Z</time>
      </trkpt>
      <trkpt lat="44.86696" lon="4.19786">
        <ele>1377.886</ele>
        <time>2011-04-11T11:29:35Z</time>
      </trkpt>
      <trkpt lat="44.86686" lon="4.19825">
        <ele>1376.373</ele>
        <time>2011-04-11T11:29:58Z</time>
      </trkpt>
      <trkpt lat="44.86685" lon="4.19847">
        <ele>1375.731</ele>
        <time>2011-04-11T11:30:11Z</time>
      </trkpt>
      <trkpt lat="44.86684" lon="4.19848">
        <ele>1375.622</ele>
        <time>2011-04-11T11:30:12Z</time>
      </trkpt>
      <trkpt lat="44.86683" lon="4.19861">
        <ele>1375.117</ele>
        <time>2011-04-11T11:30:20Z</time>
      </trkpt>
      <trkpt lat="44.86677" lon="4.19894">
        <ele>1373.633</ele>
        <time>2011-04-11T11:30:38Z</time>
      </trkpt>
      <trkpt lat="44.86675" lon="4.19938">
        <ele>1371.556</ele>
        <time>2011-04-11T11:31:03Z</time>
      </trkpt>
      <trkpt lat="44.86677" lon="4.19963">
        <ele>1370.336</ele>
        <time>2011-04-11T11:31:18Z</time>
      </trkpt>
      <trkpt lat="44.8668" lon="4.1998">
        <ele>1369.575</ele>
        <time>2011-04-11T11:31:29Z</time>
      </trkpt>
      <trkpt lat="44.86685" lon="4.20027">
        <ele>1367.532</ele>
        <time>2011-04-11T11:31:55Z</time>
      </trkpt>
      <trkpt lat="44.86684" lon="4.2007">
        <ele>1366.183</ele>
        <time>2011-04-11T11:32:19Z</time>
      </trkpt>
      <trkpt lat="44.86682" lon="4.20072">
        <ele>1366.182</ele>
        <time>2011-04-11T11:32:20Z</time>
      </trkpt>
      <trkpt lat="44.86683" lon="4.20091">
        <ele>1364.976</ele>
        <time>2011-04-11T11:32:30Z</time>
      </trkpt>
      <trkpt lat="44.86683" lon="4.20107">
        <ele>1365.047</ele>
        <time>2011-04-11T11:32:39Z</time>
      </trkpt>
      <trkpt lat="44.86682" lon="4.20114">
        <ele>1365.04</ele>
        <time>2011-04-11T11:32:43Z</time>
      </trkpt>
      <trkpt lat="44.86683" lon="4.20157">
        <ele>1362.838</ele>
        <time>2011-04-11T11:33:07Z</time>
      </trkpt>
      <trkpt lat="44.86683" lon="4.2016">
        <ele>1363.198</ele>
        <time>2011-04-11T11:33:09Z</time>
      </trkpt>
      <trkpt lat="44.86683" lon="4.20201">
        <ele>1360.952</ele>
        <time>2011-04-11T11:33:32Z</time>
      </trkpt>
      <trkpt lat="44.86689" lon="4.20245">
        <ele>1358.577</ele>
        <time>2011-04-11T11:33:57Z</time>
      </trkpt>
      <trkpt lat="44.867" lon="4.20276">
        <ele>1358.136</ele>
        <time>2011-04-11T11:34:18Z</time>
      </trkpt>
      <trkpt lat="44.86705" lon="4.20281">
        <ele>1357.93</ele>
        <time>2011-04-11T11:34:22Z</time>
      </trkpt>
      <trkpt lat="44.86708" lon="4.20284">
        <ele>1357.524</ele>
        <time>2011-04-11T11:34:25Z</time>
      </trkpt>
      <trkpt lat="44.86727" lon="4.20285">
        <ele>1355.486</ele>
        <time>2011-04-11T11:34:44Z</time>
      </trkpt>
      <trkpt lat="44.86728" lon="4.20286">
        <ele>1356.047</ele>
        <time>2011-04-11T11:35:05Z</time>
      </trkpt>
      <trkpt lat="44.86732" lon="4.20283">
        <ele>1355.513</ele>
        <time>2011-04-11T11:35:09Z</time>
      </trkpt>
      <trkpt lat="44.86754" lon="4.20274">
        <ele>1353.372</ele>
        <time>2011-04-11T11:35:26Z</time>
      </trkpt>
      <trkpt lat="44.8678" lon="4.20279">
        <ele>1351.853</ele>
        <time>2011-04-11T11:35:45Z</time>
      </trkpt>
      <trkpt lat="44.86807" lon="4.20287">
        <ele>1349.51</ele>
        <time>2011-04-11T11:36:07Z</time>
      </trkpt>
      <trkpt lat="44.86802" lon="4.20262">
        <ele>1348.09</ele>
        <time>2011-04-11T11:36:22Z</time>
      </trkpt>
      <trkpt lat="44.86776" lon="4.20248">
        <ele>1345.37</ele>
        <time>2011-04-11T11:36:43Z</time>
      </trkpt>
      <trkpt lat="44.86745" lon="4.20232">
        <ele>1342.946</ele>
        <time>2011-04-11T11:37:10Z</time>
      </trkpt>
      <trkpt lat="44.86733" lon="4.20198">
        <ele>1340.471</ele>
        <time>2011-04-11T11:37:32Z</time>
      </trkpt>
      <trkpt lat="44.86733" lon="4.20181">
        <ele>1339.632</ele>
        <time>2011-04-11T11:37:42Z</time>
      </trkpt>
      <trkpt lat="44.86733" lon="4.20177">
        <ele>1339.651</ele>
        <time>2011-04-11T11:37:44Z</time>
      </trkpt>
      <trkpt lat="44.86735" lon="4.20155">
        <ele>1337.873</ele>
        <time>2011-04-11T11:37:57Z</time>
      </trkpt>
      <trkpt lat="44.86736" lon="4.20147">
        <ele>1337.691</ele>
        <time>2011-04-11T11:38:01Z</time>
      </trkpt>
      <trkpt lat="44.86746" lon="4.20104">
        <ele>1335.488</ele>
        <time>2011-04-11T11:38:27Z</time>
      </trkpt>
      <trkpt lat="44.86756" lon="4.20069">
        <ele>1333.551</ele>
        <time>2011-04-11T11:38:49Z</time>
      </trkpt>
      <trkpt lat="44.86758" lon="4.2007">
        <ele>1332.861</ele>
        <time>2011-04-11T11:38:51Z</time>
      </trkpt>
      <trkpt lat="44.86762" lon="4.20083">
        <ele>1332.426</ele>
        <time>2011-04-11T11:39:00Z</time>
      </trkpt>
      <trkpt lat="44.86756" lon="4.20107">
        <ele>1331.37</ele>
        <time>2011-04-11T11:39:16Z</time>
      </trkpt>
      <trkpt lat="44.86752" lon="4.20126">
        <ele>1330.67</ele>
        <time>2011-04-11T11:39:29Z</time>
      </trkpt>
      <trkpt lat="44.8675" lon="4.20147">
        <ele>1329.257</ele>
        <time>2011-04-11T11:39:43Z</time>
      </trkpt>
      <trkpt lat="44.8675" lon="4.2016">
        <ele>1328.99</ele>
        <time>2011-04-11T11:39:53Z</time>
      </trkpt>
      <trkpt lat="44.86751" lon="4.20165">
        <ele>1328.978</ele>
        <time>2011-04-11T11:39:56Z</time>
      </trkpt>
      <trkpt lat="44.86761" lon="4.20189">
        <ele>1327.221</ele>
        <time>2011-04-11T11:40:12Z</time>
      </trkpt>
      <trkpt lat="44.86767" lon="4.20192">
        <ele>1327.057</ele>
        <time>2011-04-11T11:40:29Z</time>
      </trkpt>
      <trkpt lat="44.86773" lon="4.20196">
        <ele>1326.495</ele>
        <time>2011-04-11T11:40:37Z</time>
      </trkpt>
      <trkpt lat="44.86783" lon="4.20197">
        <ele>1326.288</ele>
        <time>2011-04-11T11:40:45Z</time>
      </trkpt>
      <trkpt lat="44.86795" lon="4.20199">
        <ele>1325.549</ele>
        <time>2011-04-11T11:40:55Z</time>
      </trkpt>
      <trkpt lat="44.86817" lon="4.20204">
        <ele>1324.456</ele>
        <time>2011-04-11T11:41:14Z</time>
      </trkpt>
      <trkpt lat="44.86819" lon="4.20203">
        <ele>1324.532</ele>
        <time>2011-04-11T11:41:16Z</time>
      </trkpt>
      <trkpt lat="44.86825" lon="4.20204">
        <ele>1324.24</ele>
        <time>2011-04-11T11:41:22Z</time>
      </trkpt>
      <trkpt lat="44.86829" lon="4.20201">
        <ele>1324.185</ele>
        <time>2011-04-11T11:41:27Z</time>
      </trkpt>
      <trkpt lat="44.86831" lon="4.20202">
        <ele>1323.994</ele>
        <time>2011-04-11T11:41:29Z</time>
      </trkpt>
      <trkpt lat="44.86853" lon="4.2021">
        <ele>1322.098</ele>
        <time>2011-04-11T11:41:48Z</time>
      </trkpt>
      <trkpt lat="44.86874" lon="4.20226">
        <ele>1321.268</ele>
        <time>2011-04-11T11:42:07Z</time>
      </trkpt>
      <trkpt lat="44.86878" lon="4.20234">
        <ele>1320.756</ele>
        <time>2011-04-11T11:42:13Z</time>
      </trkpt>
      <trkpt lat="44.86885" lon="4.20264">
        <ele>1319.293</ele>
        <time>2011-04-11T11:42:33Z</time>
      </trkpt>
      <trkpt lat="44.86885" lon="4.20265">
        <ele>1319.292</ele>
        <time>2011-04-11T11:42:34Z</time>
      </trkpt>
      <trkpt lat="44.86884" lon="4.20292">
        <ele>1317.427</ele>
        <time>2011-04-11T11:42:51Z</time>
      </trkpt>
      <trkpt lat="44.86879" lon="4.20319">
        <ele>1315.466</ele>
        <time>2011-04-11T11:43:10Z</time>
      </trkpt>
      <trkpt lat="44.86874" lon="4.20335">
        <ele>1313.795</ele>
        <time>2011-04-11T11:43:21Z</time>
      </trkpt>
      <trkpt lat="44.86872" lon="4.20339">
        <ele>1313.408</ele>
        <time>2011-04-11T11:43:24Z</time>
      </trkpt>
      <trkpt lat="44.86864" lon="4.20369">
        <ele>1311.177</ele>
        <time>2011-04-11T11:43:44Z</time>
      </trkpt>
      <trkpt lat="44.86867" lon="4.20394">
        <ele>1309.994</ele>
        <time>2011-04-11T11:44:01Z</time>
      </trkpt>
      <trkpt lat="44.86868" lon="4.20396">
        <ele>1309.991</ele>
        <time>2011-04-11T11:44:02Z</time>
      </trkpt>
      <trkpt lat="44.86869" lon="4.20403">
        <ele>1309.413</ele>
        <time>2011-04-11T11:44:05Z</time>
      </trkpt>
      <trkpt lat="44.86889" lon="4.20429">
        <ele>1306.974</ele>
        <time>2011-04-11T11:44:25Z</time>
      </trkpt>
      <trkpt lat="44.86916" lon="4.20441">
        <ele>1304.74</ele>
        <time>2011-04-11T11:44:48Z</time>
      </trkpt>
      <trkpt lat="44.86916" lon="4.20442">
        <ele>1304.65</ele>
        <time>2011-04-11T11:44:53Z</time>
      </trkpt>
      <trkpt lat="44.86924" lon="4.20458">
        <ele>1304.213</ele>
        <time>2011-04-11T11:45:06Z</time>
      </trkpt>
      <trkpt lat="44.86925" lon="4.20461">
        <ele>1304.325</ele>
        <time>2011-04-11T11:45:09Z</time>
      </trkpt>
      <trkpt lat="44.86938" lon="4.20494">
        <ele>1302.592</ele>
        <time>2011-04-11T11:45:30Z</time>
      </trkpt>
      <trkpt lat="44.8694" lon="4.205">
        <ele>1302.813</ele>
        <time>2011-04-11T11:45:34Z</time>
      </trkpt>
      <trkpt lat="44.86942" lon="4.20502">
        <ele>1302.103</ele>
        <time>2011-04-11T11:45:36Z</time>
      </trkpt>
      <trkpt lat="44.86954" lon="4.20532">
        <ele>1302.019</ele>
        <time>2011-04-11T11:45:58Z</time>
      </trkpt>
      <trkpt lat="44.86955" lon="4.20538">
        <ele>1301.672</ele>
        <time>2011-04-11T11:46:01Z</time>
      </trkpt>
      <trkpt lat="44.86961" lon="4.20559">
        <ele>1301.216</ele>
        <time>2011-04-11T11:46:16Z</time>
      </trkpt>
      <trkpt lat="44.86973" lon="4.20587">
        <ele>1300.505</ele>
        <time>2011-04-11T11:46:33Z</time>
      </trkpt>
      <trkpt lat="44.86992" lon="4.20613">
        <ele>1299.753</ele>
        <time>2011-04-11T11:46:55Z</time>
      </trkpt>
      <trkpt lat="44.87014" lon="4.2063">
        <ele>1298.569</ele>
        <time>2011-04-11T11:47:15Z</time>
      </trkpt>
      <trkpt lat="44.87032" lon="4.20644">
        <ele>1297.452</ele>
        <time>2011-04-11T11:47:35Z</time>
      </trkpt>
      <trkpt lat="44.87046" lon="4.20659">
        <ele>1295.682</ele>
        <time>2011-04-11T11:47:49Z</time>
      </trkpt>
      <trkpt lat="44.87058" lon="4.2069">
        <ele>1294.068</ele>
        <time>2011-04-11T11:48:10Z</time>
      </trkpt>
      <trkpt lat="44.87064" lon="4.20717">
        <ele>1292.725</ele>
        <time>2011-04-11T11:48:27Z</time>
      </trkpt>
      <trkpt lat="44.87074" lon="4.20731">
        <ele>1291.724</ele>
        <time>2011-04-11T11:48:40Z</time>
      </trkpt>
      <trkpt lat="44.87096" lon="4.20757">
        <ele>1290.248</ele>
        <time>2011-04-11T11:49:04Z</time>
      </trkpt>
      <trkpt lat="44.87101" lon="4.20766">
        <ele>1289.467</ele>
        <time>2011-04-11T11:49:11Z</time>
      </trkpt>
      <trkpt lat="44.87106" lon="4.2078">
        <ele>1288.981</ele>
        <time>2011-04-11T11:49:24Z</time>
      </trkpt>
      <trkpt lat="44.8711" lon="4.20795">
        <ele>1288.307</ele>
        <time>2011-04-11T11:49:34Z</time>
      </trkpt>
      <trkpt lat="44.8711" lon="4.20799">
        <ele>1288.134</ele>
        <time>2011-04-11T11:49:36Z</time>
      </trkpt>
      <trkpt lat="44.87111" lon="4.20831">
        <ele>1287.261</ele>
        <time>2011-04-11T11:49:54Z</time>
      </trkpt>
      <trkpt lat="44.87108" lon="4.20859">
        <ele>1286.94</ele>
        <time>2011-04-11T11:50:10Z</time>
      </trkpt>
      <trkpt lat="44.87105" lon="4.20886">
        <ele>1285.877</ele>
        <time>2011-04-11T11:50:25Z</time>
      </trkpt>
      <trkpt lat="44.87103" lon="4.20896">
        <ele>1285.289</ele>
        <time>2011-04-11T11:50:31Z</time>
      </trkpt>
      <trkpt lat="44.87098" lon="4.20937">
        <ele>1284.454</ele>
        <time>2011-04-11T11:50:56Z</time>
      </trkpt>
      <trkpt lat="44.87097" lon="4.20948">
        <ele>1284.755</ele>
        <time>2011-04-11T11:51:02Z</time>
      </trkpt>
      <trkpt lat="44.87096" lon="4.20987">
        <ele>1285.926</ele>
        <time>2011-04-11T11:51:26Z</time>
      </trkpt>
      <trkpt lat="44.87096" lon="4.21013">
        <ele>1287.335</ele>
        <time>2011-04-11T11:51:43Z</time>
      </trkpt>
      <trkpt lat="44.87092" lon="4.21044">
        <ele>1289.059</ele>
        <time>2011-04-11T11:52:02Z</time>
      </trkpt>
      <trkpt lat="44.87088" lon="4.21064">
        <ele>1289.539</ele>
        <time>2011-04-11T11:52:18Z</time>
      </trkpt>
      <trkpt lat="44.87084" lon="4.21091">
        <ele>1290.269</ele>
        <time>2011-04-11T11:52:34Z</time>
      </trkpt>
      <trkpt lat="44.87078" lon="4.21126">
        <ele>1289.609</ele>
        <time>2011-04-11T11:52:56Z</time>
      </trkpt>
      <trkpt lat="44.87074" lon="4.21149">
        <ele>1288.138</ele>
        <time>2011-04-11T11:53:12Z</time>
      </trkpt>
      <trkpt lat="44.87072" lon="4.21159">
        <ele>1287.75</ele>
        <time>2011-04-11T11:53:28Z</time>
      </trkpt>
      <trkpt lat="44.87072" lon="4.21159">
        <ele>1289.188</ele>
        <time>2011-04-11T11:54:25Z</time>
      </trkpt>
      <trkpt lat="44.87074" lon="4.21163">
        <ele>1288.681</ele>
        <time>2011-04-11T11:54:29Z</time>
      </trkpt>
      <trkpt lat="44.87083" lon="4.21166">
        <ele>1286.372</ele>
        <time>2011-04-11T11:54:37Z</time>
      </trkpt>
      <trkpt lat="44.87104" lon="4.21179">
        <ele>1284.719</ele>
        <time>2011-04-11T11:54:56Z</time>
      </trkpt>
      <trkpt lat="44.87114" lon="4.2119">
        <ele>1287.115</ele>
        <time>2011-04-11T11:55:09Z</time>
      </trkpt>
      <trkpt lat="44.87122" lon="4.21199">
        <ele>1289.296</ele>
        <time>2011-04-11T11:55:23Z</time>
      </trkpt>
      <trkpt lat="44.87126" lon="4.21203">
        <ele>1290</ele>
        <time>2011-04-11T11:55:28Z</time>
      </trkpt>
      <trkpt lat="44.87132" lon="4.21223">
        <ele>1292.243</ele>
        <time>2011-04-11T11:55:48Z</time>
      </trkpt>
      <trkpt lat="44.87134" lon="4.21232">
        <ele>1292.43</ele>
        <time>2011-04-11T11:56:06Z</time>
      </trkpt>
      <trkpt lat="44.87136" lon="4.21241">
        <ele>1293.138</ele>
        <time>2011-04-11T11:56:12Z</time>
      </trkpt>
      <trkpt lat="44.87138" lon="4.21265">
        <ele>1294.338</ele>
        <time>2011-04-11T11:56:28Z</time>
      </trkpt>
      <trkpt lat="44.87153" lon="4.21285">
        <ele>1296.04</ele>
        <time>2011-04-11T11:56:48Z</time>
      </trkpt>
      <trkpt lat="44.87159" lon="4.21292">
        <ele>1295.791</ele>
        <time>2011-04-11T11:56:58Z</time>
      </trkpt>
      <trkpt lat="44.87165" lon="4.21298">
        <ele>1296.155</ele>
        <time>2011-04-11T11:57:10Z</time>
      </trkpt>
      <trkpt lat="44.87171" lon="4.213">
        <ele>1295.949</ele>
        <time>2011-04-11T11:57:17Z</time>
      </trkpt>
      <trkpt lat="44.87189" lon="4.21302">
        <ele>1297.065</ele>
        <time>2011-04-11T11:57:34Z</time>
      </trkpt>
      <trkpt lat="44.87202" lon="4.21305">
        <ele>1299.674</ele>
        <time>2011-04-11T11:57:48Z</time>
      </trkpt>
      <trkpt lat="44.87214" lon="4.21305">
        <ele>1303.255</ele>
        <time>2011-04-11T11:58:03Z</time>
      </trkpt>
      <trkpt lat="44.87225" lon="4.21303">
        <ele>1305.848</ele>
        <time>2011-04-11T11:58:17Z</time>
      </trkpt>
      <trkpt lat="44.87244" lon="4.21296">
        <ele>1307.515</ele>
        <time>2011-04-11T11:58:38Z</time>
      </trkpt>
      <trkpt lat="44.87254" lon="4.21293">
        <ele>1308.849</ele>
        <time>2011-04-11T11:58:48Z</time>
      </trkpt>
      <trkpt lat="44.87265" lon="4.21286">
        <ele>1312.012</ele>
        <time>2011-04-11T11:59:04Z</time>
      </trkpt>
      <trkpt lat="44.87274" lon="4.21286">
        <ele>1314.349</ele>
        <time>2011-04-11T11:59:19Z</time>
      </trkpt>
      <trkpt lat="44.87283" lon="4.2129">
        <ele>1316.885</ele>
        <time>2011-04-11T11:59:50Z</time>
      </trkpt>
      <trkpt lat="44.87291" lon="4.21296">
        <ele>1319.263</ele>
        <time>2011-04-11T12:00:09Z</time>
      </trkpt>
      <trkpt lat="44.87296" lon="4.213">
        <ele>1320.681</ele>
        <time>2011-04-11T12:00:15Z</time>
      </trkpt>
      <trkpt lat="44.87308" lon="4.21312">
        <ele>1323.893</ele>
        <time>2011-04-11T12:00:32Z</time>
      </trkpt>
      <trkpt lat="44.8732" lon="4.21327">
        <ele>1327.31</ele>
        <time>2011-04-11T12:00:52Z</time>
      </trkpt>
      <trkpt lat="44.8732" lon="4.21332">
        <ele>1327.636</ele>
        <time>2011-04-11T12:01:03Z</time>
      </trkpt>
      <trkpt lat="44.87326" lon="4.2134">
        <ele>1330.231</ele>
        <time>2011-04-11T12:01:36Z</time>
      </trkpt>
      <trkpt lat="44.87331" lon="4.21368">
        <ele>1332.242</ele>
        <time>2011-04-11T12:01:57Z</time>
      </trkpt>
      <trkpt lat="44.87343" lon="4.21382">
        <ele>1333.388</ele>
        <time>2011-04-11T12:02:14Z</time>
      </trkpt>
      <trkpt lat="44.87348" lon="4.21385">
        <ele>1333.359</ele>
        <time>2011-04-11T12:02:22Z</time>
      </trkpt>
      <trkpt lat="44.87356" lon="4.2139">
        <ele>1333.766</ele>
        <time>2011-04-11T12:02:37Z</time>
      </trkpt>
      <trkpt lat="44.87357" lon="4.21392">
        <ele>1334.292</ele>
        <time>2011-04-11T12:02:39Z</time>
      </trkpt>
      <trkpt lat="44.87362" lon="4.21393">
        <ele>1334.205</ele>
        <time>2011-04-11T12:02:45Z</time>
      </trkpt>
      <trkpt lat="44.87369" lon="4.21396">
        <ele>1333.485</ele>
        <time>2011-04-11T12:02:52Z</time>
      </trkpt>
      <trkpt lat="44.87375" lon="4.21403">
        <ele>1334.77</ele>
        <time>2011-04-11T12:03:00Z</time>
      </trkpt>
      <trkpt lat="44.87379" lon="4.21407">
        <ele>1335.688</ele>
        <time>2011-04-11T12:03:06Z</time>
      </trkpt>
      <trkpt lat="44.87387" lon="4.21406">
        <ele>1336.199</ele>
        <time>2011-04-11T12:03:14Z</time>
      </trkpt>
      <trkpt lat="44.87389" lon="4.21405">
        <ele>1335.698</ele>
        <time>2011-04-11T12:03:16Z</time>
      </trkpt>
      <trkpt lat="44.874" lon="4.21411">
        <ele>1336.454</ele>
        <time>2011-04-11T12:03:31Z</time>
      </trkpt>
      <trkpt lat="44.8741" lon="4.2141">
        <ele>1336.394</ele>
        <time>2011-04-11T12:03:43Z</time>
      </trkpt>
      <trkpt lat="44.87421" lon="4.21415">
        <ele>1337.936</ele>
        <time>2011-04-11T12:03:57Z</time>
      </trkpt>
      <trkpt lat="44.87423" lon="4.21412">
        <ele>1338.419</ele>
        <time>2011-04-11T12:04:00Z</time>
      </trkpt>
      <trkpt lat="44.87426" lon="4.21408">
        <ele>1338.704</ele>
        <time>2011-04-11T12:04:02Z</time>
      </trkpt>
      <trkpt lat="44.87433" lon="4.21404">
        <ele>1338.348</ele>
        <time>2011-04-11T12:04:09Z</time>
      </trkpt>
      <trkpt lat="44.87437" lon="4.21403">
        <ele>1337.471</ele>
        <time>2011-04-11T12:04:13Z</time>
      </trkpt>
      <trkpt lat="44.87442" lon="4.21405">
        <ele>1338.399</ele>
        <time>2011-04-11T12:04:28Z</time>
      </trkpt>
      <trkpt lat="44.87448" lon="4.21408">
        <ele>1339.779</ele>
        <time>2011-04-11T12:04:46Z</time>
      </trkpt>
      <trkpt lat="44.87461" lon="4.21413">
        <ele>1343.197</ele>
        <time>2011-04-11T12:05:03Z</time>
      </trkpt>
      <trkpt lat="44.87466" lon="4.21415">
        <ele>1345.303</ele>
        <time>2011-04-11T12:05:11Z</time>
      </trkpt>
      <trkpt lat="44.87468" lon="4.21415">
        <ele>1344.686</ele>
        <time>2011-04-11T12:05:57Z</time>
      </trkpt>
      <trkpt lat="44.87473" lon="4.2142">
        <ele>1346.706</ele>
        <time>2011-04-11T12:06:30Z</time>
      </trkpt>
      <trkpt lat="44.87474" lon="4.2142">
        <ele>1347.685</ele>
        <time>2011-04-11T12:06:32Z</time>
      </trkpt>
      <trkpt lat="44.87488" lon="4.21425">
        <ele>1350.545</ele>
        <time>2011-04-11T12:06:50Z</time>
      </trkpt>
      <trkpt lat="44.87496" lon="4.21424">
        <ele>1350.956</ele>
        <time>2011-04-11T12:07:02Z</time>
      </trkpt>
      <trkpt lat="44.87499" lon="4.21425">
        <ele>1351.219</ele>
        <time>2011-04-11T12:07:19Z</time>
      </trkpt>
      <trkpt lat="44.87497" lon="4.21423">
        <ele>1350.975</ele>
        <time>2011-04-11T12:07:28Z</time>
      </trkpt>
      <trkpt lat="44.87492" lon="4.21424">
        <ele>1350.85</ele>
        <time>2011-04-11T12:07:33Z</time>
      </trkpt>
      <trkpt lat="44.87489" lon="4.21434">
        <ele>1353.453</ele>
        <time>2011-04-11T12:07:46Z</time>
      </trkpt>
      <trkpt lat="44.87484" lon="4.2144">
        <ele>1356.679</ele>
        <time>2011-04-11T12:08:01Z</time>
      </trkpt>
      <trkpt lat="44.87483" lon="4.21449">
        <ele>1359.852</ele>
        <time>2011-04-11T12:08:14Z</time>
      </trkpt>
      <trkpt lat="44.87478" lon="4.21452">
        <ele>1361.811</ele>
        <time>2011-04-11T12:08:29Z</time>
      </trkpt>
      <trkpt lat="44.8748" lon="4.2146">
        <ele>1364.61</ele>
        <time>2011-04-11T12:08:57Z</time>
      </trkpt>
      <trkpt lat="44.87475" lon="4.21467">
        <ele>1367.903</ele>
        <time>2011-04-11T12:09:43Z</time>
      </trkpt>
      <trkpt lat="44.87465" lon="4.21477">
        <ele>1370.524</ele>
        <time>2011-04-11T12:10:00Z</time>
      </trkpt>
      <trkpt lat="44.87462" lon="4.2148">
        <ele>1372.091</ele>
        <time>2011-04-11T12:10:14Z</time>
      </trkpt>
      <trkpt lat="44.87463" lon="4.21479">
        <ele>1371.709</ele>
        <time>2011-04-11T12:10:34Z</time>
      </trkpt>
      <trkpt lat="44.87469" lon="4.21486">
        <ele>1374.693</ele>
        <time>2011-04-11T12:10:49Z</time>
      </trkpt>
      <trkpt lat="44.87473" lon="4.21493">
        <ele>1377.929</ele>
        <time>2011-04-11T12:11:03Z</time>
      </trkpt>
      <trkpt lat="44.87472" lon="4.21501">
        <ele>1381.165</ele>
        <time>2011-04-11T12:11:17Z</time>
      </trkpt>
      <trkpt lat="44.87472" lon="4.21506">
        <ele>1383.335</ele>
        <time>2011-04-11T12:11:30Z</time>
      </trkpt>
      <trkpt lat="44.87471" lon="4.21512">
        <ele>1386.371</ele>
        <time>2011-04-11T12:11:39Z</time>
      </trkpt>
      <trkpt lat="44.8747" lon="4.21513">
        <ele>1387.948</ele>
        <time>2011-04-11T12:11:53Z</time>
      </trkpt>
      <trkpt lat="44.87469" lon="4.21514">
        <ele>1387.392</ele>
        <time>2011-04-11T12:12:44Z</time>
      </trkpt>
      <trkpt lat="44.87472" lon="4.21519">
        <ele>1389.966</ele>
        <time>2011-04-11T12:12:57Z</time>
      </trkpt>
      <trkpt lat="44.87472" lon="4.2152">
        <ele>1391.268</ele>
        <time>2011-04-11T12:13:01Z</time>
      </trkpt>
      <trkpt lat="44.87471" lon="4.21525">
        <ele>1393.147</ele>
        <time>2011-04-11T12:13:23Z</time>
      </trkpt>
      <trkpt lat="44.8747" lon="4.21532">
        <ele>1396.232</ele>
        <time>2011-04-11T12:13:36Z</time>
      </trkpt>
      <trkpt lat="44.87467" lon="4.21542">
        <ele>1399.799</ele>
        <time>2011-04-11T12:13:55Z</time>
      </trkpt>
      <trkpt lat="44.87466" lon="4.21551">
        <ele>1403.177</ele>
        <time>2011-04-11T12:14:13Z</time>
      </trkpt>
      <trkpt lat="44.87463" lon="4.21555">
        <ele>1403.622</ele>
        <time>2011-04-11T12:14:36Z</time>
      </trkpt>
      <trkpt lat="44.8746" lon="4.21561">
        <ele>1405.919</ele>
        <time>2011-04-11T12:14:52Z</time>
      </trkpt>
      <trkpt lat="44.87457" lon="4.21568">
        <ele>1406.504</ele>
        <time>2011-04-11T12:15:10Z</time>
      </trkpt>
      <trkpt lat="44.87455" lon="4.21576">
        <ele>1408.686</ele>
        <time>2011-04-11T12:15:20Z</time>
      </trkpt>
      <trkpt lat="44.87453" lon="4.21578">
        <ele>1408.8</ele>
        <time>2011-04-11T12:15:37Z</time>
      </trkpt>
      <trkpt lat="44.87451" lon="4.21584">
        <ele>1410.642</ele>
        <time>2011-04-11T12:15:52Z</time>
      </trkpt>
      <trkpt lat="44.87449" lon="4.21587">
        <ele>1410.781</ele>
        <time>2011-04-11T12:16:00Z</time>
      </trkpt>
      <trkpt lat="44.87443" lon="4.21601">
        <ele>1413.497</ele>
        <time>2011-04-11T12:16:20Z</time>
      </trkpt>
      <trkpt lat="44.87441" lon="4.21607">
        <ele>1414.63</ele>
        <time>2011-04-11T12:16:35Z</time>
      </trkpt>
      <trkpt lat="44.87435" lon="4.21615">
        <ele>1414.061</ele>
        <time>2011-04-11T12:16:49Z</time>
      </trkpt>
      <trkpt lat="44.87433" lon="4.21618">
        <ele>1414.66</ele>
        <time>2011-04-11T12:17:06Z</time>
      </trkpt>
      <trkpt lat="44.87432" lon="4.21632">
        <ele>1417.76</ele>
        <time>2011-04-11T12:17:21Z</time>
      </trkpt>
      <trkpt lat="44.87431" lon="4.21639">
        <ele>1419.279</ele>
        <time>2011-04-11T12:17:41Z</time>
      </trkpt>
      <trkpt lat="44.87431" lon="4.21647">
        <ele>1420.772</ele>
        <time>2011-04-11T12:17:54Z</time>
      </trkpt>
      <trkpt lat="44.8743" lon="4.21651">
        <ele>1420.458</ele>
        <time>2011-04-11T12:18:19Z</time>
      </trkpt>
      <trkpt lat="44.87424" lon="4.21655">
        <ele>1421.532</ele>
        <time>2011-04-11T12:18:36Z</time>
      </trkpt>
      <trkpt lat="44.87421" lon="4.21667">
        <ele>1423.385</ele>
        <time>2011-04-11T12:18:55Z</time>
      </trkpt>
      <trkpt lat="44.87423" lon="4.21674">
        <ele>1425.579</ele>
        <time>2011-04-11T12:19:06Z</time>
      </trkpt>
      <trkpt lat="44.87419" lon="4.21692">
        <ele>1429.429</ele>
        <time>2011-04-11T12:19:24Z</time>
      </trkpt>
      <trkpt lat="44.87414" lon="4.21706">
        <ele>1432.641</ele>
        <time>2011-04-11T12:19:44Z</time>
      </trkpt>
      <trkpt lat="44.87413" lon="4.21707">
        <ele>1433.104</ele>
        <time>2011-04-11T12:21:06Z</time>
      </trkpt>
      <trkpt lat="44.87411" lon="4.21725">
        <ele>1435.012</ele>
        <time>2011-04-11T12:21:23Z</time>
      </trkpt>
      <trkpt lat="44.87408" lon="4.21735">
        <ele>1438.354</ele>
        <time>2011-04-11T12:21:38Z</time>
      </trkpt>
      <trkpt lat="44.87404" lon="4.21751">
        <ele>1441.149</ele>
        <time>2011-04-11T12:21:55Z</time>
      </trkpt>
      <trkpt lat="44.87402" lon="4.21763">
        <ele>1444.589</ele>
        <time>2011-04-11T12:22:08Z</time>
      </trkpt>
      <trkpt lat="44.87403" lon="4.21771">
        <ele>1448.032</ele>
        <time>2011-04-11T12:22:20Z</time>
      </trkpt>
      <trkpt lat="44.874" lon="4.21775">
        <ele>1448.36</ele>
        <time>2011-04-11T12:22:44Z</time>
      </trkpt>
      <trkpt lat="44.874" lon="4.21776">
        <ele>1448.65</ele>
        <time>2011-04-11T12:23:08Z</time>
      </trkpt>
      <trkpt lat="44.874" lon="4.21777">
        <ele>1448.407</ele>
        <time>2011-04-11T12:23:39Z</time>
      </trkpt>
      <trkpt lat="44.87391" lon="4.21787">
        <ele>1448.286</ele>
        <time>2011-04-11T12:23:53Z</time>
      </trkpt>
      <trkpt lat="44.87384" lon="4.21805">
        <ele>1451.116</ele>
        <time>2011-04-11T12:24:12Z</time>
      </trkpt>
      <trkpt lat="44.87379" lon="4.21819">
        <ele>1454.415</ele>
        <time>2011-04-11T12:24:30Z</time>
      </trkpt>
      <trkpt lat="44.87378" lon="4.2183">
        <ele>1457.421</ele>
        <time>2011-04-11T12:24:44Z</time>
      </trkpt>
      <trkpt lat="44.87377" lon="4.21844">
        <ele>1459.975</ele>
        <time>2011-04-11T12:24:59Z</time>
      </trkpt>
      <trkpt lat="44.87376" lon="4.21852">
        <ele>1462.193</ele>
        <time>2011-04-11T12:25:15Z</time>
      </trkpt>
      <trkpt lat="44.87375" lon="4.21855">
        <ele>1462.249</ele>
        <time>2011-04-11T12:26:16Z</time>
      </trkpt>
      <trkpt lat="44.87374" lon="4.21872">
        <ele>1464.84</ele>
        <time>2011-04-11T12:26:32Z</time>
      </trkpt>
      <trkpt lat="44.87372" lon="4.2188">
        <ele>1467.85</ele>
        <time>2011-04-11T12:26:42Z</time>
      </trkpt>
      <trkpt lat="44.87372" lon="4.21883">
        <ele>1468.518</ele>
        <time>2011-04-11T12:26:46Z</time>
      </trkpt>
      <trkpt lat="44.8737" lon="4.21897">
        <ele>1471.741</ele>
        <time>2011-04-11T12:27:04Z</time>
      </trkpt>
      <trkpt lat="44.87365" lon="4.21903">
        <ele>1472.509</ele>
        <time>2011-04-11T12:27:15Z</time>
      </trkpt>
      <trkpt lat="44.87362" lon="4.21918">
        <ele>1475.26</ele>
        <time>2011-04-11T12:27:32Z</time>
      </trkpt>
      <trkpt lat="44.8736" lon="4.21934">
        <ele>1476.533</ele>
        <time>2011-04-11T12:27:46Z</time>
      </trkpt>
      <trkpt lat="44.8736" lon="4.21942">
        <ele>1476.922</ele>
        <time>2011-04-11T12:28:03Z</time>
      </trkpt>
      <trkpt lat="44.87358" lon="4.21958">
        <ele>1478.871</ele>
        <time>2011-04-11T12:28:51Z</time>
      </trkpt>
      <trkpt lat="44.87354" lon="4.21979">
        <ele>1481.725</ele>
        <time>2011-04-11T12:29:10Z</time>
      </trkpt>
      <trkpt lat="44.87349" lon="4.21995">
        <ele>1484.23</ele>
        <time>2011-04-11T12:29:28Z</time>
      </trkpt>
      <trkpt lat="44.87351" lon="4.21998">
        <ele>1486.353</ele>
        <time>2011-04-11T12:29:51Z</time>
      </trkpt>
      <trkpt lat="44.87352" lon="4.22011">
        <ele>1489.562</ele>
        <time>2011-04-11T12:30:07Z</time>
      </trkpt>
      <trkpt lat="44.87352" lon="4.22013">
        <ele>1490.251</ele>
        <time>2011-04-11T12:30:09Z</time>
      </trkpt>
      <trkpt lat="44.87352" lon="4.22028">
        <ele>1493.727</ele>
        <time>2011-04-11T12:30:24Z</time>
      </trkpt>
      <trkpt lat="44.87348" lon="4.22034">
        <ele>1495.716</ele>
        <time>2011-04-11T12:30:40Z</time>
      </trkpt>
      <trkpt lat="44.8735" lon="4.22045">
        <ele>1496.936</ele>
        <time>2011-04-11T12:31:00Z</time>
      </trkpt>
      <trkpt lat="44.8735" lon="4.2206">
        <ele>1500.085</ele>
        <time>2011-04-11T12:31:17Z</time>
      </trkpt>
      <trkpt lat="44.87349" lon="4.22079">
        <ele>1503.297</ele>
        <time>2011-04-11T12:31:35Z</time>
      </trkpt>
      <trkpt lat="44.87347" lon="4.2209">
        <ele>1505.365</ele>
        <time>2011-04-11T12:31:56Z</time>
      </trkpt>
      <trkpt lat="44.87346" lon="4.22102">
        <ele>1508.443</ele>
        <time>2011-04-11T12:32:13Z</time>
      </trkpt>
      <trkpt lat="44.87349" lon="4.22106">
        <ele>1510.346</ele>
        <time>2011-04-11T12:32:27Z</time>
      </trkpt>
      <trkpt lat="44.87348" lon="4.2211">
        <ele>1510.321</ele>
        <time>2011-04-11T12:32:48Z</time>
      </trkpt>
      <trkpt lat="44.87345" lon="4.2212">
        <ele>1512.356</ele>
        <time>2011-04-11T12:33:09Z</time>
      </trkpt>
      <trkpt lat="44.87345" lon="4.2212">
        <ele>1511.909</ele>
        <time>2011-04-11T12:33:10Z</time>
      </trkpt>
      <trkpt lat="44.87343" lon="4.22121">
        <ele>1511.825</ele>
        <time>2011-04-11T12:33:12Z</time>
      </trkpt>
      <trkpt lat="44.87335" lon="4.22137">
        <ele>1512.718</ele>
        <time>2011-04-11T12:33:29Z</time>
      </trkpt>
      <trkpt lat="44.87329" lon="4.22155">
        <ele>1514.445</ele>
        <time>2011-04-11T12:33:45Z</time>
      </trkpt>
      <trkpt lat="44.87328" lon="4.22161">
        <ele>1514.161</ele>
        <time>2011-04-11T12:34:00Z</time>
      </trkpt>
      <trkpt lat="44.87329" lon="4.2216">
        <ele>1515.992</ele>
        <time>2011-04-11T12:47:06Z</time>
      </trkpt>
      <trkpt lat="44.8733" lon="4.2216">
        <ele>1515.215</ele>
        <time>2011-04-11T12:51:54Z</time>
      </trkpt>
      <trkpt lat="44.87329" lon="4.22159">
        <ele>1517.214</ele>
        <time>2011-04-11T12:51:56Z</time>
      </trkpt>
      <trkpt lat="44.8733" lon="4.2216">
        <ele>1515.934</ele>
        <time>2011-04-11T12:51:58Z</time>
      </trkpt>
      <trkpt lat="44.8733" lon="4.2216">
        <ele>1515.441</ele>
        <time>2011-04-11T12:53:09Z</time>
      </trkpt>
      <trkpt lat="44.87331" lon="4.22161">
        <ele>1515.785</ele>
        <time>2011-04-11T12:53:48Z</time>
      </trkpt>
      <trkpt lat="44.87331" lon="4.22161">
        <ele>1514.878</ele>
        <time>2011-04-11T12:54:11Z</time>
      </trkpt>
      <trkpt lat="44.87332" lon="4.22161">
        <ele>1517.359</ele>
        <time>2011-04-11T13:04:34Z</time>
      </trkpt>
      <trkpt lat="44.87333" lon="4.22164">
        <ele>1518.041</ele>
        <time>2011-04-11T13:04:50Z</time>
      </trkpt>
      <trkpt lat="44.87333" lon="4.22156">
        <ele>1516.693</ele>
        <time>2011-04-11T13:05:36Z</time>
      </trkpt>
      <trkpt lat="44.87333" lon="4.22146">
        <ele>1516.585</ele>
        <time>2011-04-11T13:05:54Z</time>
      </trkpt>
      <trkpt lat="44.87338" lon="4.22135">
        <ele>1515.952</ele>
        <time>2011-04-11T13:06:15Z</time>
      </trkpt>
      <trkpt lat="44.87344" lon="4.22122">
        <ele>1514.526</ele>
        <time>2011-04-11T13:06:33Z</time>
      </trkpt>
      <trkpt lat="44.87345" lon="4.2212">
        <ele>1513.885</ele>
        <time>2011-04-11T13:06:37Z</time>
      </trkpt>
      <trkpt lat="44.87349" lon="4.22111">
        <ele>1513.232</ele>
        <time>2011-04-11T13:06:46Z</time>
      </trkpt>
      <trkpt lat="44.87353" lon="4.22099">
        <ele>1512.89</ele>
        <time>2011-04-11T13:07:04Z</time>
      </trkpt>
      <trkpt lat="44.87354" lon="4.22098">
        <ele>1513.05</ele>
        <time>2011-04-11T13:07:05Z</time>
      </trkpt>
      <trkpt lat="44.87353" lon="4.22087">
        <ele>1511.768</ele>
        <time>2011-04-11T13:07:20Z</time>
      </trkpt>
      <trkpt lat="44.87355" lon="4.22077">
        <ele>1508.673</ele>
        <time>2011-04-11T13:07:33Z</time>
      </trkpt>
      <trkpt lat="44.87353" lon="4.22069">
        <ele>1506.957</ele>
        <time>2011-04-11T13:07:50Z</time>
      </trkpt>
      <trkpt lat="44.87353" lon="4.22058">
        <ele>1504.596</ele>
        <time>2011-04-11T13:08:03Z</time>
      </trkpt>
      <trkpt lat="44.87353" lon="4.22047">
        <ele>1502.824</ele>
        <time>2011-04-11T13:08:18Z</time>
      </trkpt>
      <trkpt lat="44.87353" lon="4.2204">
        <ele>1500.703</ele>
        <time>2011-04-11T13:08:30Z</time>
      </trkpt>
      <trkpt lat="44.87353" lon="4.22032">
        <ele>1499.474</ele>
        <time>2011-04-11T13:08:44Z</time>
      </trkpt>
      <trkpt lat="44.87354" lon="4.22019">
        <ele>1496.034</ele>
        <time>2011-04-11T13:08:59Z</time>
      </trkpt>
      <trkpt lat="44.87355" lon="4.22006">
        <ele>1493.875</ele>
        <time>2011-04-11T13:09:15Z</time>
      </trkpt>
      <trkpt lat="44.87353" lon="4.21997">
        <ele>1491.549</ele>
        <time>2011-04-11T13:09:31Z</time>
      </trkpt>
      <trkpt lat="44.87353" lon="4.21985">
        <ele>1488.417</ele>
        <time>2011-04-11T13:09:48Z</time>
      </trkpt>
      <trkpt lat="44.87355" lon="4.21975">
        <ele>1486.546</ele>
        <time>2011-04-11T13:10:06Z</time>
      </trkpt>
      <trkpt lat="44.87358" lon="4.21963">
        <ele>1484.752</ele>
        <time>2011-04-11T13:10:22Z</time>
      </trkpt>
      <trkpt lat="44.87361" lon="4.21951">
        <ele>1482.797</ele>
        <time>2011-04-11T13:10:36Z</time>
      </trkpt>
      <trkpt lat="44.87361" lon="4.21947">
        <ele>1482.047</ele>
        <time>2011-04-11T13:10:40Z</time>
      </trkpt>
      <trkpt lat="44.87363" lon="4.2193">
        <ele>1480.702</ele>
        <time>2011-04-11T13:10:57Z</time>
      </trkpt>
      <trkpt lat="44.87367" lon="4.21912">
        <ele>1478.879</ele>
        <time>2011-04-11T13:11:15Z</time>
      </trkpt>
      <trkpt lat="44.87368" lon="4.21902">
        <ele>1476.723</ele>
        <time>2011-04-11T13:11:27Z</time>
      </trkpt>
      <trkpt lat="44.87375" lon="4.21888">
        <ele>1474.313</ele>
        <time>2011-04-11T13:11:47Z</time>
      </trkpt>
      <trkpt lat="44.87379" lon="4.21881">
        <ele>1472.664</ele>
        <time>2011-04-11T13:11:58Z</time>
      </trkpt>
      <trkpt lat="44.87377" lon="4.21877">
        <ele>1471.995</ele>
        <time>2011-04-11T13:12:10Z</time>
      </trkpt>
      <trkpt lat="44.87378" lon="4.21868">
        <ele>1469.418</ele>
        <time>2011-04-11T13:12:25Z</time>
      </trkpt>
      <trkpt lat="44.87377" lon="4.21856">
        <ele>1467.693</ele>
        <time>2011-04-11T13:12:39Z</time>
      </trkpt>
      <trkpt lat="44.8738" lon="4.21843">
        <ele>1465.868</ele>
        <time>2011-04-11T13:12:53Z</time>
      </trkpt>
      <trkpt lat="44.87381" lon="4.21834">
        <ele>1464.462</ele>
        <time>2011-04-11T13:13:06Z</time>
      </trkpt>
      <trkpt lat="44.87382" lon="4.21826">
        <ele>1462.351</ele>
        <time>2011-04-11T13:13:19Z</time>
      </trkpt>
      <trkpt lat="44.87382" lon="4.21816">
        <ele>1458.905</ele>
        <time>2011-04-11T13:13:32Z</time>
      </trkpt>
      <trkpt lat="44.87386" lon="4.21807">
        <ele>1458.652</ele>
        <time>2011-04-11T13:13:47Z</time>
      </trkpt>
      <trkpt lat="44.87388" lon="4.218">
        <ele>1455.711</ele>
        <time>2011-04-11T13:14:01Z</time>
      </trkpt>
      <trkpt lat="44.87388" lon="4.21797">
        <ele>1455.554</ele>
        <time>2011-04-11T13:14:03Z</time>
      </trkpt>
      <trkpt lat="44.87388" lon="4.21794">
        <ele>1454.097</ele>
        <time>2011-04-11T13:14:06Z</time>
      </trkpt>
      <trkpt lat="44.87389" lon="4.21791">
        <ele>1453.458</ele>
        <time>2011-04-11T13:14:09Z</time>
      </trkpt>
      <trkpt lat="44.874" lon="4.21777">
        <ele>1452.835</ele>
        <time>2011-04-11T13:14:28Z</time>
      </trkpt>
      <trkpt lat="44.87404" lon="4.21767">
        <ele>1450.94</ele>
        <time>2011-04-11T13:14:46Z</time>
      </trkpt>
      <trkpt lat="44.87403" lon="4.21756">
        <ele>1447.94</ele>
        <time>2011-04-11T13:15:01Z</time>
      </trkpt>
      <trkpt lat="44.87407" lon="4.21743">
        <ele>1444.863</ele>
        <time>2011-04-11T13:15:16Z</time>
      </trkpt>
      <trkpt lat="44.87409" lon="4.2173">
        <ele>1442.669</ele>
        <time>2011-04-11T13:15:34Z</time>
      </trkpt>
      <trkpt lat="44.87411" lon="4.2172">
        <ele>1439.807</ele>
        <time>2011-04-11T13:15:51Z</time>
      </trkpt>
      <trkpt lat="44.87412" lon="4.21709">
        <ele>1437.253</ele>
        <time>2011-04-11T13:16:08Z</time>
      </trkpt>
      <trkpt lat="44.87414" lon="4.21705">
        <ele>1437.338</ele>
        <time>2011-04-11T13:16:23Z</time>
      </trkpt>
      <trkpt lat="44.87419" lon="4.21693">
        <ele>1435.759</ele>
        <time>2011-04-11T13:16:36Z</time>
      </trkpt>
      <trkpt lat="44.87424" lon="4.21681">
        <ele>1433.213</ele>
        <time>2011-04-11T13:16:52Z</time>
      </trkpt>
      <trkpt lat="44.87425" lon="4.2167">
        <ele>1430.331</ele>
        <time>2011-04-11T13:17:09Z</time>
      </trkpt>
      <trkpt lat="44.87424" lon="4.21661">
        <ele>1428.322</ele>
        <time>2011-04-11T13:17:23Z</time>
      </trkpt>
      <trkpt lat="44.87431" lon="4.21652">
        <ele>1426.382</ele>
        <time>2011-04-11T13:17:39Z</time>
      </trkpt>
      <trkpt lat="44.87435" lon="4.21644">
        <ele>1424.722</ele>
        <time>2011-04-11T13:17:57Z</time>
      </trkpt>
      <trkpt lat="44.87436" lon="4.21637">
        <ele>1424.3</ele>
        <time>2011-04-11T13:18:08Z</time>
      </trkpt>
      <trkpt lat="44.87436" lon="4.21627">
        <ele>1422.185</ele>
        <time>2011-04-11T13:18:22Z</time>
      </trkpt>
      <trkpt lat="44.87436" lon="4.21619">
        <ele>1420.6</ele>
        <time>2011-04-11T13:18:35Z</time>
      </trkpt>
      <trkpt lat="44.87437" lon="4.21615">
        <ele>1419.77</ele>
        <time>2011-04-11T13:18:39Z</time>
      </trkpt>
      <trkpt lat="44.87442" lon="4.21607">
        <ele>1418.713</ele>
        <time>2011-04-11T13:18:52Z</time>
      </trkpt>
      <trkpt lat="44.87445" lon="4.21603">
        <ele>1418.294</ele>
        <time>2011-04-11T13:19:07Z</time>
      </trkpt>
      <trkpt lat="44.87446" lon="4.21598">
        <ele>1416.463</ele>
        <time>2011-04-11T13:19:23Z</time>
      </trkpt>
      <trkpt lat="44.87447" lon="4.21592">
        <ele>1414.85</ele>
        <time>2011-04-11T13:19:30Z</time>
      </trkpt>
      <trkpt lat="44.87454" lon="4.21583">
        <ele>1414.013</ele>
        <time>2011-04-11T13:19:44Z</time>
      </trkpt>
      <trkpt lat="44.87455" lon="4.21582">
        <ele>1413.352</ele>
        <time>2011-04-11T13:19:58Z</time>
      </trkpt>
      <trkpt lat="44.87458" lon="4.21576">
        <ele>1413.04</ele>
        <time>2011-04-11T13:20:12Z</time>
      </trkpt>
      <trkpt lat="44.87458" lon="4.21576">
        <ele>1412.425</ele>
        <time>2011-04-11T13:20:30Z</time>
      </trkpt>
      <trkpt lat="44.87462" lon="4.21564">
        <ele>1410.51</ele>
        <time>2011-04-11T13:21:00Z</time>
      </trkpt>
      <trkpt lat="44.87462" lon="4.21564">
        <ele>1410.383</ele>
        <time>2011-04-11T13:21:01Z</time>
      </trkpt>
      <trkpt lat="44.87466" lon="4.21556">
        <ele>1408.696</ele>
        <time>2011-04-11T13:21:18Z</time>
      </trkpt>
      <trkpt lat="44.87467" lon="4.2155">
        <ele>1406.564</ele>
        <time>2011-04-11T13:21:31Z</time>
      </trkpt>
      <trkpt lat="44.87467" lon="4.21547">
        <ele>1405.082</ele>
        <time>2011-04-11T13:21:43Z</time>
      </trkpt>
      <trkpt lat="44.8747" lon="4.21539">
        <ele>1402.802</ele>
        <time>2011-04-11T13:21:55Z</time>
      </trkpt>
      <trkpt lat="44.8747" lon="4.21538">
        <ele>1402.8</ele>
        <time>2011-04-11T13:21:56Z</time>
      </trkpt>
      <trkpt lat="44.87471" lon="4.21529">
        <ele>1398.808</ele>
        <time>2011-04-11T13:22:08Z</time>
      </trkpt>
      <trkpt lat="44.87471" lon="4.21526">
        <ele>1398.074</ele>
        <time>2011-04-11T13:22:33Z</time>
      </trkpt>
      <trkpt lat="44.87472" lon="4.2152">
        <ele>1395.537</ele>
        <time>2011-04-11T13:22:49Z</time>
      </trkpt>
      <trkpt lat="44.87473" lon="4.21516">
        <ele>1394.151</ele>
        <time>2011-04-11T13:23:06Z</time>
      </trkpt>
      <trkpt lat="44.87472" lon="4.21513">
        <ele>1391.83</ele>
        <time>2011-04-11T13:23:21Z</time>
      </trkpt>
      <trkpt lat="44.87472" lon="4.21511">
        <ele>1390.86</ele>
        <time>2011-04-11T13:23:50Z</time>
      </trkpt>
      <trkpt lat="44.87473" lon="4.21504">
        <ele>1387.875</ele>
        <time>2011-04-11T13:24:20Z</time>
      </trkpt>
      <trkpt lat="44.87472" lon="4.21498">
        <ele>1384.493</ele>
        <time>2011-04-11T13:24:33Z</time>
      </trkpt>
      <trkpt lat="44.87473" lon="4.21495">
        <ele>1383.439</ele>
        <time>2011-04-11T13:24:48Z</time>
      </trkpt>
      <trkpt lat="44.87473" lon="4.21487">
        <ele>1380.905</ele>
        <time>2011-04-11T13:25:10Z</time>
      </trkpt>
      <trkpt lat="44.87471" lon="4.21485">
        <ele>1380.275</ele>
        <time>2011-04-11T13:25:14Z</time>
      </trkpt>
      <trkpt lat="44.87468" lon="4.21479">
        <ele>1377.408</ele>
        <time>2011-04-11T13:25:22Z</time>
      </trkpt>
      <trkpt lat="44.87467" lon="4.21473">
        <ele>1375.13</ele>
        <time>2011-04-11T13:25:35Z</time>
      </trkpt>
      <trkpt lat="44.87465" lon="4.21474">
        <ele>1375.76</ele>
        <time>2011-04-11T13:25:51Z</time>
      </trkpt>
      <trkpt lat="44.87454" lon="4.21481">
        <ele>1372.548</ele>
        <time>2011-04-11T13:26:05Z</time>
      </trkpt>
      <trkpt lat="44.87444" lon="4.21479">
        <ele>1369.893</ele>
        <time>2011-04-11T13:26:22Z</time>
      </trkpt>
      <trkpt lat="44.8744" lon="4.21478">
        <ele>1368.429</ele>
        <time>2011-04-11T13:26:38Z</time>
      </trkpt>
      <trkpt lat="44.87437" lon="4.2148">
        <ele>1366.542</ele>
        <time>2011-04-11T13:26:58Z</time>
      </trkpt>
      <trkpt lat="44.87431" lon="4.21478">
        <ele>1364.359</ele>
        <time>2011-04-11T13:27:15Z</time>
      </trkpt>
      <trkpt lat="44.8743" lon="4.21477">
        <ele>1363.426</ele>
        <time>2011-04-11T13:27:35Z</time>
      </trkpt>
      <trkpt lat="44.87422" lon="4.21473">
        <ele>1360.744</ele>
        <time>2011-04-11T13:27:49Z</time>
      </trkpt>
      <trkpt lat="44.87417" lon="4.21472">
        <ele>1358.075</ele>
        <time>2011-04-11T13:28:02Z</time>
      </trkpt>
      <trkpt lat="44.87416" lon="4.21474">
        <ele>1358.087</ele>
        <time>2011-04-11T13:28:22Z</time>
      </trkpt>
      <trkpt lat="44.8741" lon="4.21471">
        <ele>1355.85</ele>
        <time>2011-04-11T13:28:43Z</time>
      </trkpt>
      <trkpt lat="44.87402" lon="4.2147">
        <ele>1354.959</ele>
        <time>2011-04-11T13:29:05Z</time>
      </trkpt>
      <trkpt lat="44.87397" lon="4.21471">
        <ele>1354.28</ele>
        <time>2011-04-11T13:29:10Z</time>
      </trkpt>
      <trkpt lat="44.87394" lon="4.21472">
        <ele>1353.88</ele>
        <time>2011-04-11T13:29:13Z</time>
      </trkpt>
      <trkpt lat="44.87387" lon="4.21473">
        <ele>1351.678</ele>
        <time>2011-04-11T13:29:23Z</time>
      </trkpt>
      <trkpt lat="44.87374" lon="4.21469">
        <ele>1349.367</ele>
        <time>2011-04-11T13:29:34Z</time>
      </trkpt>
      <trkpt lat="44.87372" lon="4.21467">
        <ele>1348.373</ele>
        <time>2011-04-11T13:29:36Z</time>
      </trkpt>
      <trkpt lat="44.87368" lon="4.21457">
        <ele>1345.723</ele>
        <time>2011-04-11T13:29:54Z</time>
      </trkpt>
      <trkpt lat="44.87368" lon="4.21432">
        <ele>1342.81</ele>
        <time>2011-04-11T13:30:08Z</time>
      </trkpt>
      <trkpt lat="44.87365" lon="4.21426">
        <ele>1341.758</ele>
        <time>2011-04-11T13:30:13Z</time>
      </trkpt>
      <trkpt lat="44.87357" lon="4.21414">
        <ele>1338.697</ele>
        <time>2011-04-11T13:30:28Z</time>
      </trkpt>
      <trkpt lat="44.87358" lon="4.21414">
        <ele>1338.341</ele>
        <time>2011-04-11T13:31:11Z</time>
      </trkpt>
      <trkpt lat="44.87358" lon="4.21414">
        <ele>1337.917</ele>
        <time>2011-04-11T13:31:15Z</time>
      </trkpt>
      <trkpt lat="44.87351" lon="4.21406">
        <ele>1335.458</ele>
        <time>2011-04-11T13:31:24Z</time>
      </trkpt>
      <trkpt lat="44.87347" lon="4.21401">
        <ele>1335.365</ele>
        <time>2011-04-11T13:31:29Z</time>
      </trkpt>
      <trkpt lat="44.87338" lon="4.21382">
        <ele>1333.108</ele>
        <time>2011-04-11T13:31:43Z</time>
      </trkpt>
      <trkpt lat="44.87335" lon="4.21367">
        <ele>1331.351</ele>
        <time>2011-04-11T13:31:59Z</time>
      </trkpt>
      <trkpt lat="44.87336" lon="4.21367">
        <ele>1333.399</ele>
        <time>2011-04-11T13:32:08Z</time>
      </trkpt>
      <trkpt lat="44.87333" lon="4.21358">
        <ele>1332.72</ele>
        <time>2011-04-11T13:32:15Z</time>
      </trkpt>
      <trkpt lat="44.87332" lon="4.21351">
        <ele>1333.029</ele>
        <time>2011-04-11T13:32:20Z</time>
      </trkpt>
      <trkpt lat="44.8733" lon="4.21348">
        <ele>1333.029</ele>
        <time>2011-04-11T13:32:23Z</time>
      </trkpt>
      <trkpt lat="44.8733" lon="4.21345">
        <ele>1332.574</ele>
        <time>2011-04-11T13:32:25Z</time>
      </trkpt>
      <trkpt lat="44.87327" lon="4.21336">
        <ele>1331.682</ele>
        <time>2011-04-11T13:32:31Z</time>
      </trkpt>
      <trkpt lat="44.87325" lon="4.21329">
        <ele>1331.604</ele>
        <time>2011-04-11T13:32:36Z</time>
      </trkpt>
      <trkpt lat="44.87322" lon="4.21321">
        <ele>1329.648</ele>
        <time>2011-04-11T13:32:51Z</time>
      </trkpt>
      <trkpt lat="44.87321" lon="4.21321">
        <ele>1330.199</ele>
        <time>2011-04-11T13:32:52Z</time>
      </trkpt>
      <trkpt lat="44.87318" lon="4.21315">
        <ele>1327.712</ele>
        <time>2011-04-11T13:32:57Z</time>
      </trkpt>
      <trkpt lat="44.87308" lon="4.21306">
        <ele>1324.347</ele>
        <time>2011-04-11T13:33:10Z</time>
      </trkpt>
      <trkpt lat="44.87293" lon="4.21293">
        <ele>1320.979</ele>
        <time>2011-04-11T13:33:27Z</time>
      </trkpt>
      <trkpt lat="44.8729" lon="4.21291">
        <ele>1319.083</ele>
        <time>2011-04-11T13:33:47Z</time>
      </trkpt>
      <trkpt lat="44.87279" lon="4.21284">
        <ele>1316.605</ele>
        <time>2011-04-11T13:34:04Z</time>
      </trkpt>
      <trkpt lat="44.87272" lon="4.21283">
        <ele>1314.92</ele>
        <time>2011-04-11T13:34:10Z</time>
      </trkpt>
      <trkpt lat="44.87263" lon="4.21287">
        <ele>1312.058</ele>
        <time>2011-04-11T13:34:21Z</time>
      </trkpt>
      <trkpt lat="44.8726" lon="4.21292">
        <ele>1311.195</ele>
        <time>2011-04-11T13:34:24Z</time>
      </trkpt>
      <trkpt lat="44.87237" lon="4.21287">
        <ele>1307.147</ele>
        <time>2011-04-11T13:34:45Z</time>
      </trkpt>
      <trkpt lat="44.87222" lon="4.21273">
        <ele>1309.189</ele>
        <time>2011-04-11T13:35:02Z</time>
      </trkpt>
      <trkpt lat="44.87214" lon="4.21263">
        <ele>1310.433</ele>
        <time>2011-04-11T13:35:13Z</time>
      </trkpt>
      <trkpt lat="44.87212" lon="4.21258">
        <ele>1310.523</ele>
        <time>2011-04-11T13:35:16Z</time>
      </trkpt>
      <trkpt lat="44.87205" lon="4.21245">
        <ele>1308.213</ele>
        <time>2011-04-11T13:35:27Z</time>
      </trkpt>
      <trkpt lat="44.87194" lon="4.21236">
        <ele>1305.718</ele>
        <time>2011-04-11T13:35:38Z</time>
      </trkpt>
      <trkpt lat="44.8718" lon="4.21226">
        <ele>1304.515</ele>
        <time>2011-04-11T13:35:57Z</time>
      </trkpt>
      <trkpt lat="44.87175" lon="4.21225">
        <ele>1304.07</ele>
        <time>2011-04-11T13:36:13Z</time>
      </trkpt>
      <trkpt lat="44.87165" lon="4.21214">
        <ele>1301.062</ele>
        <time>2011-04-11T13:36:28Z</time>
      </trkpt>
      <trkpt lat="44.8716" lon="4.21206">
        <ele>1298.483</ele>
        <time>2011-04-11T13:36:36Z</time>
      </trkpt>
      <trkpt lat="44.87149" lon="4.21195">
        <ele>1295.989</ele>
        <time>2011-04-11T13:36:48Z</time>
      </trkpt>
      <trkpt lat="44.87134" lon="4.21183">
        <ele>1292.666</ele>
        <time>2011-04-11T13:37:05Z</time>
      </trkpt>
      <trkpt lat="44.8713" lon="4.2118">
        <ele>1292.194</ele>
        <time>2011-04-11T13:37:09Z</time>
      </trkpt>
      <trkpt lat="44.87129" lon="4.21173">
        <ele>1291.972</ele>
        <time>2011-04-11T13:37:23Z</time>
      </trkpt>
      <trkpt lat="44.87125" lon="4.21173">
        <ele>1289.884</ele>
        <time>2011-04-11T13:37:26Z</time>
      </trkpt>
      <trkpt lat="44.87118" lon="4.2118">
        <ele>1288.087</ele>
        <time>2011-04-11T13:37:33Z</time>
      </trkpt>
      <trkpt lat="44.87101" lon="4.21171">
        <ele>1285.671</ele>
        <time>2011-04-11T13:37:49Z</time>
      </trkpt>
      <trkpt lat="44.87084" lon="4.21162">
        <ele>1286.385</ele>
        <time>2011-04-11T13:38:10Z</time>
      </trkpt>
      <trkpt lat="44.87075" lon="4.21153">
        <ele>1289.478</ele>
        <time>2011-04-11T13:38:23Z</time>
      </trkpt>
      <trkpt lat="44.87075" lon="4.21151">
        <ele>1286.882</ele>
        <time>2011-04-11T13:38:34Z</time>
      </trkpt>
      <trkpt lat="44.87067" lon="4.21146">
        <ele>1288.521</ele>
        <time>2011-04-11T13:39:05Z</time>
      </trkpt>
      <trkpt lat="44.87057" lon="4.21151">
        <ele>1289.97</ele>
        <time>2011-04-11T13:39:16Z</time>
      </trkpt>
      <trkpt lat="44.8704" lon="4.21152">
        <ele>1292.35</ele>
        <time>2011-04-11T13:39:34Z</time>
      </trkpt>
      <trkpt lat="44.87026" lon="4.21147">
        <ele>1293.592</ele>
        <time>2011-04-11T13:39:50Z</time>
      </trkpt>
      <trkpt lat="44.87009" lon="4.2114">
        <ele>1296.393</ele>
        <time>2011-04-11T13:40:13Z</time>
      </trkpt>
      <trkpt lat="44.86996" lon="4.21126">
        <ele>1298.514</ele>
        <time>2011-04-11T13:40:33Z</time>
      </trkpt>
      <trkpt lat="44.86988" lon="4.2111">
        <ele>1300.361</ele>
        <time>2011-04-11T13:40:49Z</time>
      </trkpt>
      <trkpt lat="44.86978" lon="4.21099">
        <ele>1301.217</ele>
        <time>2011-04-11T13:41:04Z</time>
      </trkpt>
      <trkpt lat="44.86969" lon="4.21095">
        <ele>1302.838</ele>
        <time>2011-04-11T13:41:20Z</time>
      </trkpt>
      <trkpt lat="44.8696" lon="4.21086">
        <ele>1304.008</ele>
        <time>2011-04-11T13:41:35Z</time>
      </trkpt>
      <trkpt lat="44.86949" lon="4.21085">
        <ele>1305.064</ele>
        <time>2011-04-11T13:41:48Z</time>
      </trkpt>
      <trkpt lat="44.86947" lon="4.21086">
        <ele>1305.003</ele>
        <time>2011-04-11T13:41:51Z</time>
      </trkpt>
      <trkpt lat="44.86943" lon="4.21087">
        <ele>1305.329</ele>
        <time>2011-04-11T13:41:59Z</time>
      </trkpt>
      <trkpt lat="44.8694" lon="4.21091">
        <ele>1305.755</ele>
        <time>2011-04-11T13:42:03Z</time>
      </trkpt>
      <trkpt lat="44.86937" lon="4.21092">
        <ele>1305.572</ele>
        <time>2011-04-11T13:42:07Z</time>
      </trkpt>
      <trkpt lat="44.86937" lon="4.2109">
        <ele>1305.807</ele>
        <time>2011-04-11T13:42:20Z</time>
      </trkpt>
      <trkpt lat="44.86943" lon="4.21083">
        <ele>1305.034</ele>
        <time>2011-04-11T13:42:32Z</time>
      </trkpt>
      <trkpt lat="44.86934" lon="4.21076">
        <ele>1307.571</ele>
        <time>2011-04-11T13:42:46Z</time>
      </trkpt>
      <trkpt lat="44.86933" lon="4.21075">
        <ele>1307.328</ele>
        <time>2011-04-11T13:42:47Z</time>
      </trkpt>
      <trkpt lat="44.86925" lon="4.21068">
        <ele>1309.124</ele>
        <time>2011-04-11T13:42:58Z</time>
      </trkpt>
      <trkpt lat="44.86918" lon="4.21063">
        <ele>1310.683</ele>
        <time>2011-04-11T13:43:11Z</time>
      </trkpt>
      <trkpt lat="44.86915" lon="4.21052">
        <ele>1312.177</ele>
        <time>2011-04-11T13:43:19Z</time>
      </trkpt>
      <trkpt lat="44.8691" lon="4.21038">
        <ele>1315.34</ele>
        <time>2011-04-11T13:43:33Z</time>
      </trkpt>
      <trkpt lat="44.86902" lon="4.21028">
        <ele>1318.264</ele>
        <time>2011-04-11T13:43:48Z</time>
      </trkpt>
      <trkpt lat="44.869" lon="4.21028">
        <ele>1319.284</ele>
        <time>2011-04-11T13:44:09Z</time>
      </trkpt>
      <trkpt lat="44.86896" lon="4.21027">
        <ele>1319.529</ele>
        <time>2011-04-11T13:44:16Z</time>
      </trkpt>
      <trkpt lat="44.86885" lon="4.21022">
        <ele>1321.194</ele>
        <time>2011-04-11T13:44:30Z</time>
      </trkpt>
      <trkpt lat="44.86867" lon="4.21013">
        <ele>1323.776</ele>
        <time>2011-04-11T13:44:53Z</time>
      </trkpt>
      <trkpt lat="44.86852" lon="4.21007">
        <ele>1325.687</ele>
        <time>2011-04-11T13:45:14Z</time>
      </trkpt>
      <trkpt lat="44.86839" lon="4.21004">
        <ele>1328.759</ele>
        <time>2011-04-11T13:45:31Z</time>
      </trkpt>
      <trkpt lat="44.86825" lon="4.20998">
        <ele>1331.784</ele>
        <time>2011-04-11T13:45:48Z</time>
      </trkpt>
      <trkpt lat="44.86815" lon="4.20994">
        <ele>1334.29</ele>
        <time>2011-04-11T13:46:03Z</time>
      </trkpt>
      <trkpt lat="44.86802" lon="4.20986">
        <ele>1336.164</ele>
        <time>2011-04-11T13:46:20Z</time>
      </trkpt>
      <trkpt lat="44.86792" lon="4.2098">
        <ele>1338.582</ele>
        <time>2011-04-11T13:46:33Z</time>
      </trkpt>
      <trkpt lat="44.86782" lon="4.20972">
        <ele>1340.762</ele>
        <time>2011-04-11T13:46:49Z</time>
      </trkpt>
      <trkpt lat="44.86774" lon="4.20962">
        <ele>1343.491</ele>
        <time>2011-04-11T13:47:02Z</time>
      </trkpt>
      <trkpt lat="44.86773" lon="4.20957">
        <ele>1345.188</ele>
        <time>2011-04-11T13:47:15Z</time>
      </trkpt>
      <trkpt lat="44.86773" lon="4.20952">
        <ele>1345.134</ele>
        <time>2011-04-11T13:48:06Z</time>
      </trkpt>
      <trkpt lat="44.86771" lon="4.20941">
        <ele>1342.876</ele>
        <time>2011-04-11T13:48:16Z</time>
      </trkpt>
      <trkpt lat="44.86772" lon="4.20935">
        <ele>1342.081</ele>
        <time>2011-04-11T13:48:21Z</time>
      </trkpt>
      <trkpt lat="44.86772" lon="4.20924">
        <ele>1340.566</ele>
        <time>2011-04-11T13:48:28Z</time>
      </trkpt>
      <trkpt lat="44.86769" lon="4.20905">
        <ele>1337.499</ele>
        <time>2011-04-11T13:48:41Z</time>
      </trkpt>
      <trkpt lat="44.86767" lon="4.20897">
        <ele>1336.632</ele>
        <time>2011-04-11T13:48:47Z</time>
      </trkpt>
      <trkpt lat="44.86768" lon="4.20881">
        <ele>1334.558</ele>
        <time>2011-04-11T13:48:59Z</time>
      </trkpt>
      <trkpt lat="44.86768" lon="4.20873">
        <ele>1333.824</ele>
        <time>2011-04-11T13:49:04Z</time>
      </trkpt>
      <trkpt lat="44.86768" lon="4.20859">
        <ele>1332.941</ele>
        <time>2011-04-11T13:49:15Z</time>
      </trkpt>
      <trkpt lat="44.86772" lon="4.20829">
        <ele>1331.051</ele>
        <time>2011-04-11T13:49:36Z</time>
      </trkpt>
      <trkpt lat="44.86775" lon="4.20811">
        <ele>1330.595</ele>
        <time>2011-04-11T13:49:50Z</time>
      </trkpt>
      <trkpt lat="44.86775" lon="4.20808">
        <ele>1330.218</ele>
        <time>2011-04-11T13:49:52Z</time>
      </trkpt>
      <trkpt lat="44.86778" lon="4.20792">
        <ele>1329.706</ele>
        <time>2011-04-11T13:50:05Z</time>
      </trkpt>
      <trkpt lat="44.86784" lon="4.20779">
        <ele>1329.549</ele>
        <time>2011-04-11T13:50:22Z</time>
      </trkpt>
      <trkpt lat="44.86791" lon="4.2076">
        <ele>1329.885</ele>
        <time>2011-04-11T13:50:37Z</time>
      </trkpt>
      <trkpt lat="44.86794" lon="4.20738">
        <ele>1329.348</ele>
        <time>2011-04-11T13:50:51Z</time>
      </trkpt>
      <trkpt lat="44.86795" lon="4.20735">
        <ele>1329.801</ele>
        <time>2011-04-11T13:50:53Z</time>
      </trkpt>
      <trkpt lat="44.86798" lon="4.20714">
        <ele>1329.032</ele>
        <time>2011-04-11T13:51:06Z</time>
      </trkpt>
      <trkpt lat="44.86798" lon="4.2071">
        <ele>1329.449</ele>
        <time>2011-04-11T13:51:09Z</time>
      </trkpt>
      <trkpt lat="44.86794" lon="4.207">
        <ele>1329.504</ele>
        <time>2011-04-11T13:51:16Z</time>
      </trkpt>
      <trkpt lat="44.86796" lon="4.20679">
        <ele>1329.985</ele>
        <time>2011-04-11T13:51:30Z</time>
      </trkpt>
      <trkpt lat="44.868" lon="4.20658">
        <ele>1329.731</ele>
        <time>2011-04-11T13:51:43Z</time>
      </trkpt>
      <trkpt lat="44.86802" lon="4.20642">
        <ele>1330.507</ele>
        <time>2011-04-11T13:51:54Z</time>
      </trkpt>
      <trkpt lat="44.86805" lon="4.20616">
        <ele>1330.389</ele>
        <time>2011-04-11T13:52:12Z</time>
      </trkpt>
      <trkpt lat="44.86806" lon="4.20612">
        <ele>1330.481</ele>
        <time>2011-04-11T13:52:14Z</time>
      </trkpt>
      <trkpt lat="44.86806" lon="4.20606">
        <ele>1330.58</ele>
        <time>2011-04-11T13:52:18Z</time>
      </trkpt>
      <trkpt lat="44.86806" lon="4.20583">
        <ele>1330.763</ele>
        <time>2011-04-11T13:52:33Z</time>
      </trkpt>
      <trkpt lat="44.86806" lon="4.20565">
        <ele>1330.856</ele>
        <time>2011-04-11T13:52:44Z</time>
      </trkpt>
      <trkpt lat="44.86804" lon="4.2056">
        <ele>1330.84</ele>
        <time>2011-04-11T13:52:47Z</time>
      </trkpt>
      <trkpt lat="44.86803" lon="4.20534">
        <ele>1330.756</ele>
        <time>2011-04-11T13:53:02Z</time>
      </trkpt>
      <trkpt lat="44.86805" lon="4.20527">
        <ele>1331.59</ele>
        <time>2011-04-11T13:53:22Z</time>
      </trkpt>
      <trkpt lat="44.86803" lon="4.20519">
        <ele>1331.194</ele>
        <time>2011-04-11T13:53:28Z</time>
      </trkpt>
      <trkpt lat="44.86806" lon="4.20498">
        <ele>1331.811</ele>
        <time>2011-04-11T13:53:41Z</time>
      </trkpt>
      <trkpt lat="44.86806" lon="4.20491">
        <ele>1331.759</ele>
        <time>2011-04-11T13:53:45Z</time>
      </trkpt>
      <trkpt lat="44.86806" lon="4.20469">
        <ele>1332.608</ele>
        <time>2011-04-11T13:53:59Z</time>
      </trkpt>
      <trkpt lat="44.86808" lon="4.2046">
        <ele>1333.032</ele>
        <time>2011-04-11T13:54:13Z</time>
      </trkpt>
      <trkpt lat="44.86807" lon="4.20458">
        <ele>1333.733</ele>
        <time>2011-04-11T13:54:16Z</time>
      </trkpt>
      <trkpt lat="44.86803" lon="4.20442">
        <ele>1337.172</ele>
        <time>2011-04-11T13:54:29Z</time>
      </trkpt>
      <trkpt lat="44.86801" lon="4.20432">
        <ele>1337.161</ele>
        <time>2011-04-11T13:54:36Z</time>
      </trkpt>
      <trkpt lat="44.86798" lon="4.20421">
        <ele>1338.844</ele>
        <time>2011-04-11T13:54:43Z</time>
      </trkpt>
      <trkpt lat="44.86789" lon="4.2041">
        <ele>1339.659</ele>
        <time>2011-04-11T13:54:56Z</time>
      </trkpt>
      <trkpt lat="44.86782" lon="4.20405">
        <ele>1341.561</ele>
        <time>2011-04-11T13:55:04Z</time>
      </trkpt>
      <trkpt lat="44.86772" lon="4.20394">
        <ele>1342.774</ele>
        <time>2011-04-11T13:55:17Z</time>
      </trkpt>
      <trkpt lat="44.86771" lon="4.20393">
        <ele>1343.059</ele>
        <time>2011-04-11T13:55:18Z</time>
      </trkpt>
      <trkpt lat="44.86767" lon="4.20394">
        <ele>1344.012</ele>
        <time>2011-04-11T13:55:25Z</time>
      </trkpt>
      <trkpt lat="44.86756" lon="4.20379">
        <ele>1345.763</ele>
        <time>2011-04-11T13:55:39Z</time>
      </trkpt>
      <trkpt lat="44.8675" lon="4.20374">
        <ele>1346.641</ele>
        <time>2011-04-11T13:55:43Z</time>
      </trkpt>
      <trkpt lat="44.86741" lon="4.2036">
        <ele>1347.835</ele>
        <time>2011-04-11T13:55:52Z</time>
      </trkpt>
      <trkpt lat="44.86728" lon="4.20346">
        <ele>1348.899</ele>
        <time>2011-04-11T13:56:06Z</time>
      </trkpt>
      <trkpt lat="44.86721" lon="4.20337">
        <ele>1349.6</ele>
        <time>2011-04-11T13:56:16Z</time>
      </trkpt>
      <trkpt lat="44.8671" lon="4.20322">
        <ele>1350.284</ele>
        <time>2011-04-11T13:56:34Z</time>
      </trkpt>
      <trkpt lat="44.86705" lon="4.20316">
        <ele>1352.287</ele>
        <time>2011-04-11T13:56:49Z</time>
      </trkpt>
      <trkpt lat="44.86701" lon="4.20309">
        <ele>1353.469</ele>
        <time>2011-04-11T13:57:07Z</time>
      </trkpt>
      <trkpt lat="44.86699" lon="4.20306">
        <ele>1353.964</ele>
        <time>2011-04-11T13:57:45Z</time>
      </trkpt>
      <trkpt lat="44.867" lon="4.203">
        <ele>1353.598</ele>
        <time>2011-04-11T13:58:11Z</time>
      </trkpt>
      <trkpt lat="44.867" lon="4.20286">
        <ele>1353.858</ele>
        <time>2011-04-11T13:58:20Z</time>
      </trkpt>
      <trkpt lat="44.86699" lon="4.20282">
        <ele>1353.555</ele>
        <time>2011-04-11T13:58:24Z</time>
      </trkpt>
      <trkpt lat="44.86698" lon="4.20277">
        <ele>1353.313</ele>
        <time>2011-04-11T13:58:27Z</time>
      </trkpt>
      <trkpt lat="44.86692" lon="4.20253">
        <ele>1353.747</ele>
        <time>2011-04-11T13:58:44Z</time>
      </trkpt>
      <trkpt lat="44.8669" lon="4.20243">
        <ele>1354.317</ele>
        <time>2011-04-11T13:58:58Z</time>
      </trkpt>
      <trkpt lat="44.86685" lon="4.20227">
        <ele>1354.918</ele>
        <time>2011-04-11T13:59:21Z</time>
      </trkpt>
      <trkpt lat="44.86684" lon="4.20225">
        <ele>1355.246</ele>
        <time>2011-04-11T13:59:23Z</time>
      </trkpt>
      <trkpt lat="44.86684" lon="4.20223">
        <ele>1355.046</ele>
        <time>2011-04-11T13:59:25Z</time>
      </trkpt>
      <trkpt lat="44.86683" lon="4.20218">
        <ele>1355.83</ele>
        <time>2011-04-11T13:59:28Z</time>
      </trkpt>
      <trkpt lat="44.86682" lon="4.20213">
        <ele>1356.484</ele>
        <time>2011-04-11T13:59:31Z</time>
      </trkpt>
      <trkpt lat="44.86685" lon="4.20181">
        <ele>1356.415</ele>
        <time>2011-04-11T13:59:50Z</time>
      </trkpt>
      <trkpt lat="44.86685" lon="4.20167">
        <ele>1357.552</ele>
        <time>2011-04-11T14:00:01Z</time>
      </trkpt>
      <trkpt lat="44.86683" lon="4.20141">
        <ele>1358.667</ele>
        <time>2011-04-11T14:00:23Z</time>
      </trkpt>
      <trkpt lat="44.86684" lon="4.20119">
        <ele>1359.92</ele>
        <time>2011-04-11T14:00:37Z</time>
      </trkpt>
      <trkpt lat="44.86684" lon="4.20118">
        <ele>1359.922</ele>
        <time>2011-04-11T14:00:38Z</time>
      </trkpt>
      <trkpt lat="44.86684" lon="4.20101">
        <ele>1359.992</ele>
        <time>2011-04-11T14:00:50Z</time>
      </trkpt>
      <trkpt lat="44.86684" lon="4.20098">
        <ele>1360.082</ele>
        <time>2011-04-11T14:00:53Z</time>
      </trkpt>
      <trkpt lat="44.86684" lon="4.20094">
        <ele>1360.212</ele>
        <time>2011-04-11T14:00:55Z</time>
      </trkpt>
      <trkpt lat="44.86685" lon="4.20074">
        <ele>1361.224</ele>
        <time>2011-04-11T14:01:08Z</time>
      </trkpt>
      <trkpt lat="44.86687" lon="4.2005">
        <ele>1361.62</ele>
        <time>2011-04-11T14:01:24Z</time>
      </trkpt>
      <trkpt lat="44.86687" lon="4.20041">
        <ele>1361.888</ele>
        <time>2011-04-11T14:01:30Z</time>
      </trkpt>
      <trkpt lat="44.86688" lon="4.20034">
        <ele>1362.146</ele>
        <time>2011-04-11T14:01:36Z</time>
      </trkpt>
      <trkpt lat="44.86688" lon="4.20031">
        <ele>1362.354</ele>
        <time>2011-04-11T14:01:38Z</time>
      </trkpt>
      <trkpt lat="44.86685" lon="4.20007">
        <ele>1363.502</ele>
        <time>2011-04-11T14:01:56Z</time>
      </trkpt>
      <trkpt lat="44.86684" lon="4.19993">
        <ele>1364.534</ele>
        <time>2011-04-11T14:02:07Z</time>
      </trkpt>
      <trkpt lat="44.8668" lon="4.19971">
        <ele>1365.573</ele>
        <time>2011-04-11T14:02:23Z</time>
      </trkpt>
      <trkpt lat="44.86679" lon="4.19968">
        <ele>1365.37</ele>
        <time>2011-04-11T14:02:25Z</time>
      </trkpt>
      <trkpt lat="44.86682" lon="4.19956">
        <ele>1366.978</ele>
        <time>2011-04-11T14:02:39Z</time>
      </trkpt>
      <trkpt lat="44.86682" lon="4.19949">
        <ele>1366.669</ele>
        <time>2011-04-11T14:02:53Z</time>
      </trkpt>
      <trkpt lat="44.86679" lon="4.19942">
        <ele>1367.14</ele>
        <time>2011-04-11T14:03:00Z</time>
      </trkpt>
      <trkpt lat="44.86677" lon="4.19923">
        <ele>1367.652</ele>
        <time>2011-04-11T14:03:15Z</time>
      </trkpt>
      <trkpt lat="44.86675" lon="4.19908">
        <ele>1368.136</ele>
        <time>2011-04-11T14:03:31Z</time>
      </trkpt>
      <trkpt lat="44.8668" lon="4.19882">
        <ele>1369.367</ele>
        <time>2011-04-11T14:03:49Z</time>
      </trkpt>
      <trkpt lat="44.86682" lon="4.19862">
        <ele>1369.479</ele>
        <time>2011-04-11T14:04:04Z</time>
      </trkpt>
      <trkpt lat="44.86681" lon="4.19855">
        <ele>1370.11</ele>
        <time>2011-04-11T14:04:10Z</time>
      </trkpt>
      <trkpt lat="44.86681" lon="4.19847">
        <ele>1370.709</ele>
        <time>2011-04-11T14:04:16Z</time>
      </trkpt>
      <trkpt lat="44.86684" lon="4.19835">
        <ele>1370.907</ele>
        <time>2011-04-11T14:04:23Z</time>
      </trkpt>
      <trkpt lat="44.86685" lon="4.19827">
        <ele>1371.641</ele>
        <time>2011-04-11T14:04:29Z</time>
      </trkpt>
      <trkpt lat="44.86686" lon="4.19805">
        <ele>1373.183</ele>
        <time>2011-04-11T14:04:47Z</time>
      </trkpt>
      <trkpt lat="44.86699" lon="4.19781">
        <ele>1373.905</ele>
        <time>2011-04-11T14:05:06Z</time>
      </trkpt>
      <trkpt lat="44.86714" lon="4.19774">
        <ele>1374.495</ele>
        <time>2011-04-11T14:05:22Z</time>
      </trkpt>
      <trkpt lat="44.86736" lon="4.19777">
        <ele>1375.235</ele>
        <time>2011-04-11T14:05:41Z</time>
      </trkpt>
      <trkpt lat="44.8675" lon="4.19771">
        <ele>1376.536</ele>
        <time>2011-04-11T14:05:55Z</time>
      </trkpt>
      <trkpt lat="44.86758" lon="4.19765">
        <ele>1377.026</ele>
        <time>2011-04-11T14:06:10Z</time>
      </trkpt>
      <trkpt lat="44.86767" lon="4.19752">
        <ele>1377.652</ele>
        <time>2011-04-11T14:06:21Z</time>
      </trkpt>
      <trkpt lat="44.86773" lon="4.1972">
        <ele>1378.943</ele>
        <time>2011-04-11T14:06:44Z</time>
      </trkpt>
      <trkpt lat="44.86774" lon="4.19694">
        <ele>1378.856</ele>
        <time>2011-04-11T14:07:03Z</time>
      </trkpt>
      <trkpt lat="44.86774" lon="4.19691">
        <ele>1378.895</ele>
        <time>2011-04-11T14:07:05Z</time>
      </trkpt>
      <trkpt lat="44.86772" lon="4.19667">
        <ele>1379.819</ele>
        <time>2011-04-11T14:07:23Z</time>
      </trkpt>
      <trkpt lat="44.86771" lon="4.19639">
        <ele>1381.639</ele>
        <time>2011-04-11T14:07:40Z</time>
      </trkpt>
      <trkpt lat="44.86764" lon="4.19616">
        <ele>1382.226</ele>
        <time>2011-04-11T14:07:58Z</time>
      </trkpt>
      <trkpt lat="44.86759" lon="4.1959">
        <ele>1384.401</ele>
        <time>2011-04-11T14:08:18Z</time>
      </trkpt>
      <trkpt lat="44.8675" lon="4.19577">
        <ele>1384.95</ele>
        <time>2011-04-11T14:08:31Z</time>
      </trkpt>
      <trkpt lat="44.86749" lon="4.19573">
        <ele>1385.302</ele>
        <time>2011-04-11T14:08:34Z</time>
      </trkpt>
      <trkpt lat="44.86744" lon="4.19573">
        <ele>1385.67</ele>
        <time>2011-04-11T14:08:38Z</time>
      </trkpt>
      <trkpt lat="44.86739" lon="4.19547">
        <ele>1387.375</ele>
        <time>2011-04-11T14:08:57Z</time>
      </trkpt>
      <trkpt lat="44.86736" lon="4.19536">
        <ele>1387.814</ele>
        <time>2011-04-11T14:09:14Z</time>
      </trkpt>
      <trkpt lat="44.86731" lon="4.19534">
        <ele>1388.567</ele>
        <time>2011-04-11T14:09:53Z</time>
      </trkpt>
      <trkpt lat="44.86728" lon="4.19529">
        <ele>1388.376</ele>
        <time>2011-04-11T14:10:12Z</time>
      </trkpt>
      <trkpt lat="44.86725" lon="4.19529">
        <ele>1387.877</ele>
        <time>2011-04-11T14:10:35Z</time>
      </trkpt>
      <trkpt lat="44.86722" lon="4.19533">
        <ele>1387.996</ele>
        <time>2011-04-11T14:10:42Z</time>
      </trkpt>
      <trkpt lat="44.86716" lon="4.19531">
        <ele>1388.684</ele>
        <time>2011-04-11T14:11:00Z</time>
      </trkpt>
      <trkpt lat="44.86714" lon="4.19535">
        <ele>1388.957</ele>
        <time>2011-04-11T14:11:13Z</time>
      </trkpt>
      <trkpt lat="44.86713" lon="4.19538">
        <ele>1388.833</ele>
        <time>2011-04-11T14:11:15Z</time>
      </trkpt>
      <trkpt lat="44.86701" lon="4.19552">
        <ele>1389.835</ele>
        <time>2011-04-11T14:11:30Z</time>
      </trkpt>
      <trkpt lat="44.86688" lon="4.19552">
        <ele>1390.483</ele>
        <time>2011-04-11T14:11:46Z</time>
      </trkpt>
      <trkpt lat="44.86676" lon="4.19555">
        <ele>1391.322</ele>
        <time>2011-04-11T14:11:58Z</time>
      </trkpt>
      <trkpt lat="44.86672" lon="4.19552">
        <ele>1391.863</ele>
        <time>2011-04-11T14:12:08Z</time>
      </trkpt>
      <trkpt lat="44.86667" lon="4.19548">
        <ele>1392.482</ele>
        <time>2011-04-11T14:12:14Z</time>
      </trkpt>
      <trkpt lat="44.86663" lon="4.19537">
        <ele>1393.162</ele>
        <time>2011-04-11T14:12:30Z</time>
      </trkpt>
      <trkpt lat="44.86653" lon="4.19521">
        <ele>1394.663</ele>
        <time>2011-04-11T14:12:45Z</time>
      </trkpt>
      <trkpt lat="44.86645" lon="4.19507">
        <ele>1395.271</ele>
        <time>2011-04-11T14:12:57Z</time>
      </trkpt>
      <trkpt lat="44.86641" lon="4.19503">
        <ele>1395.544</ele>
        <time>2011-04-11T14:13:02Z</time>
      </trkpt>
      <trkpt lat="44.86625" lon="4.19491">
        <ele>1396.225</ele>
        <time>2011-04-11T14:13:19Z</time>
      </trkpt>
      <trkpt lat="44.86609" lon="4.19478">
        <ele>1396.001</ele>
        <time>2011-04-11T14:13:36Z</time>
      </trkpt>
      <trkpt lat="44.86606" lon="4.19472">
        <ele>1396.13</ele>
        <time>2011-04-11T14:13:55Z</time>
      </trkpt>
      <trkpt lat="44.86606" lon="4.19473">
        <ele>1396.838</ele>
        <time>2011-04-11T14:18:26Z</time>
      </trkpt>
    </trkseg>
  </trk>
</gpx>